Aérodrome :
LOGIN :

S'inscrire | Disclaimer

   EN    FR    IT 

 










Légende :    VFR   VFR Marginal   IFR   IFR Intensif   IFR Très Intensif
Visi : 
Plafond : 
>= 8 km
>= 3000ft
5 à 8 km
1000 à 3000 ft
1500m à 5 km
500 à 1000 ft
800 à 1500m
200 à 500 ft
< 800m
< 200 ft
Symboles :   Orages  Brouillard  Fortes neiges  Fortes précipitations  Vent > 20 kt
SIGMETs :   Divers  Orages  Givrage  Turbulence  Onde Orograph.  Cendres Volcan.






- Altitude de l'aérodrome : 191 ft
- Code IATA : RNB


ESDF - Ronneby

DERNIER METAR :
  • 300720Z 36006KT 310V030 CAVOK 02/M02 Q1022

METARs EXPIRÉS :
  • 300650Z 33004KT CAVOK 00/M03 Q1022
  • 300620Z 30005KT CAVOK M01/M04 Q1022
  • 300550Z 28005KT CAVOK M02/M04 Q1022
  • 300520Z 27004KT CAVOK M03/M06 Q1022
  • 300450Z 27003KT CAVOK M04/M06 Q1022

TAF TAF ESDF
Valide du 30 à 05h jusqu'au 30 à 15h UTC


300430Z 3005/3015 31006KT CAVOK
TEMPO 3005/3008 8000 -SHSN BKN020TCU
BECMG 3005/3008 03010G20KT RMK MIL



MET'MAP, la Météo Aéronautique d'un coup d'oeil ! - Copyright ORBIFLY Décembre 2007 - Disclaimer

ORBIFLY MET'MAP TEAM :

Programmation & Développement : Alexandra Zaïnal
Sur une idée originale de : Baudouin d'Aumeries
Assistance à la programmation : Marc-Olivier Méhu
Soutien technique & logistique : Manuel Goepfert

Contact : metmap@orbifly.com




SOURCES & CREDITS :

   NOAA